sensor_id;sensor_type;location;lat;lon;timestamp;temperature;humidity
16744;DHT22;71724;-33.900;151.182;2024-02-21T00:01:27;22.30;93.80
16744;DHT22;71724;-33.900;151.182;2024-02-21T00:03:55;22.40;93.80
16744;DHT22;71724;-33.900;151.182;2024-02-21T00:06:22;22.50;93.80
16744;DHT22;71724;-33.900;151.182;2024-02-21T00:08:50;22.50;93.70
16744;DHT22;71724;-33.900;151.182;2024-02-21T00:11:17;22.50;93.60
16744;DHT22;71724;-33.900;151.182;2024-02-21T00:13:45;22.60;93.60
16744;DHT22;71724;-33.900;151.182;2024-02-21T00:16:12;22.70;93.50
16744;DHT22;71724;-33.900;151.182;2024-02-21T00:18:44;22.70;93.10
16744;DHT22;71724;-33.900;151.182;2024-02-21T00:21:12;22.80;93.00
16744;DHT22;71724;-33.900;151.182;2024-02-21T00:23:47;22.80;93.10
16744;DHT22;71724;-33.900;151.182;2024-02-21T00:26:16;22.80;92.50
16744;DHT22;71724;-33.900;151.182;2024-02-21T00:28:44;22.80;91.80
16744;DHT22;71724;-33.900;151.182;2024-02-21T00:31:12;22.80;91.60
16744;DHT22;71724;-33.900;151.182;2024-02-21T00:33:39;23.00;91.80
16744;DHT22;71724;-33.900;151.182;2024-02-21T00:36:06;23.10;91.70
16744;DHT22;71724;-33.900;151.182;2024-02-21T00:38:34;23.20;91.80
16744;DHT22;71724;-33.900;151.182;2024-02-21T00:41:01;23.10;91.50
16744;DHT22;71724;-33.900;151.182;2024-02-21T00:43:29;23.20;91.00
16744;DHT22;71724;-33.900;151.182;2024-02-21T00:45:56;23.30;90.80
16744;DHT22;71724;-33.900;151.182;2024-02-21T00:48:23;23.30;90.50
16744;DHT22;71724;-33.900;151.182;2024-02-21T00:50:51;23.40;90.70
16744;DHT22;71724;-33.900;151.182;2024-02-21T00:53:18;23.40;90.60
16744;DHT22;71724;-33.900;151.182;2024-02-21T00:55:46;23.50;90.70
16744;DHT22;71724;-33.900;151.182;2024-02-21T00:58:13;23.50;90.10
16744;DHT22;71724;-33.900;151.182;2024-02-21T01:00:41;23.50;89.90
16744;DHT22;71724;-33.900;151.182;2024-02-21T01:03:08;23.50;89.50
16744;DHT22;71724;-33.900;151.182;2024-02-21T01:05:35;23.60;89.80
16744;DHT22;71724;-33.900;151.182;2024-02-21T01:08:03;23.60;89.70
16744;DHT22;71724;-33.900;151.182;2024-02-21T01:10:30;23.70;89.90
16744;DHT22;71724;-33.900;151.182;2024-02-21T01:12:58;23.70;88.90
16744;DHT22;71724;-33.900;151.182;2024-02-21T01:15:25;23.60;88.50
16744;DHT22;71724;-33.900;151.182;2024-02-21T01:17:53;23.60;88.20
16744;DHT22;71724;-33.900;151.182;2024-02-21T01:20:21;23.60;88.50
16744;DHT22;71724;-33.900;151.182;2024-02-21T01:22:49;23.60;88.60
16744;DHT22;71724;-33.900;151.182;2024-02-21T01:25:16;23.60;88.60
16744;DHT22;71724;-33.900;151.182;2024-02-21T01:27:43;23.60;88.90
16744;DHT22;71724;-33.900;151.182;2024-02-21T01:30:11;23.60;88.70
16744;DHT22;71724;-33.900;151.182;2024-02-21T01:32:39;23.50;88.30
16744;DHT22;71724;-33.900;151.182;2024-02-21T01:35:07;23.50;88.50
16744;DHT22;71724;-33.900;151.182;2024-02-21T01:37:34;23.50;88.70
16744;DHT22;71724;-33.900;151.182;2024-02-21T01:40:02;23.50;88.60
16744;DHT22;71724;-33.900;151.182;2024-02-21T01:42:29;23.60;88.90
16744;DHT22;71724;-33.900;151.182;2024-02-21T01:44:58;23.60;89.00
16744;DHT22;71724;-33.900;151.182;2024-02-21T01:47:25;23.60;89.20
16744;DHT22;71724;-33.900;151.182;2024-02-21T01:49:53;23.60;88.90
16744;DHT22;71724;-33.900;151.182;2024-02-21T01:52:20;23.60;89.20
16744;DHT22;71724;-33.900;151.182;2024-02-21T01:54:48;23.60;89.20
16744;DHT22;71724;-33.900;151.182;2024-02-21T01:57:15;23.60;89.20
16744;DHT22;71724;-33.900;151.182;2024-02-21T01:59:43;23.50;89.00
16744;DHT22;71724;-33.900;151.182;2024-02-21T02:02:10;23.60;89.00
16744;DHT22;71724;-33.900;151.182;2024-02-21T02:04:39;23.60;89.20
16744;DHT22;71724;-33.900;151.182;2024-02-21T02:07:07;23.60;88.70
16744;DHT22;71724;-33.900;151.182;2024-02-21T02:09:35;23.60;89.10
16744;DHT22;71724;-33.900;151.182;2024-02-21T02:12:03;23.60;89.10
16744;DHT22;71724;-33.900;151.182;2024-02-21T02:14:30;23.70;89.20
16744;DHT22;71724;-33.900;151.182;2024-02-21T02:16:57;23.70;89.10
16744;DHT22;71724;-33.900;151.182;2024-02-21T02:19:25;23.70;88.60
16744;DHT22;71724;-33.900;151.182;2024-02-21T02:21:56;23.70;88.40
16744;DHT22;71724;-33.900;151.182;2024-02-21T02:24:26;23.80;88.50
16744;DHT22;71724;-33.900;151.182;2024-02-21T02:26:54;23.80;88.20
16744;DHT22;71724;-33.900;151.182;2024-02-21T02:29:21;23.80;88.00
16744;DHT22;71724;-33.900;151.182;2024-02-21T02:31:49;23.80;88.10
16744;DHT22;71724;-33.900;151.182;2024-02-21T02:34:17;23.90;88.30
16744;DHT22;71724;-33.900;151.182;2024-02-21T02:36:44;24.00;88.30
16744;DHT22;71724;-33.900;151.182;2024-02-21T02:39:12;23.90;87.80
16744;DHT22;71724;-33.900;151.182;2024-02-21T02:41:39;24.00;87.50
16744;DHT22;71724;-33.900;151.182;2024-02-21T02:44:06;24.00;87.60
16744;DHT22;71724;-33.900;151.182;2024-02-21T02:46:34;24.00;87.80
16744;DHT22;71724;-33.900;151.182;2024-02-21T02:49:01;23.90;87.20
16744;DHT22;71724;-33.900;151.182;2024-02-21T02:51:29;23.90;87.20
16744;DHT22;71724;-33.900;151.182;2024-02-21T02:53:56;23.90;87.40
16744;DHT22;71724;-33.900;151.182;2024-02-21T02:56:24;24.00;87.70
16744;DHT22;71724;-33.900;151.182;2024-02-21T02:58:51;24.00;87.80
16744;DHT22;71724;-33.900;151.182;2024-02-21T03:01:18;24.00;87.80
16744;DHT22;71724;-33.900;151.182;2024-02-21T03:03:47;24.20;87.40
16744;DHT22;71724;-33.900;151.182;2024-02-21T03:06:14;24.20;87.20
16744;DHT22;71724;-33.900;151.182;2024-02-21T03:08:42;24.20;86.80
16744;DHT22;71724;-33.900;151.182;2024-02-21T03:11:09;24.20;86.40
16744;DHT22;71724;-33.900;151.182;2024-02-21T03:13:37;24.20;86.10
16744;DHT22;71724;-33.900;151.182;2024-02-21T03:16:05;24.30;85.80
16744;DHT22;71724;-33.900;151.182;2024-02-21T03:18:32;24.30;86.40
16744;DHT22;71724;-33.900;151.182;2024-02-21T03:21:00;24.30;85.90
16744;DHT22;71724;-33.900;151.182;2024-02-21T03:23:27;24.30;86.40
16744;DHT22;71724;-33.900;151.182;2024-02-21T03:25:54;24.30;86.20
16744;DHT22;71724;-33.900;151.182;2024-02-21T03:28:22;24.40;86.20
16744;DHT22;71724;-33.900;151.182;2024-02-21T03:30:49;24.40;86.50
16744;DHT22;71724;-33.900;151.182;2024-02-21T03:33:16;24.50;86.40
16744;DHT22;71724;-33.900;151.182;2024-02-21T03:35:44;24.50;86.20
16744;DHT22;71724;-33.900;151.182;2024-02-21T03:38:11;24.60;86.10
16744;DHT22;71724;-33.900;151.182;2024-02-21T03:40:39;24.60;85.90
16744;DHT22;71724;-33.900;151.182;2024-02-21T03:43:06;24.60;86.20
16744;DHT22;71724;-33.900;151.182;2024-02-21T03:45:33;24.70;85.90
16744;DHT22;71724;-33.900;151.182;2024-02-21T03:48:01;24.70;86.00
16744;DHT22;71724;-33.900;151.182;2024-02-21T03:50:29;24.70;86.20
16744;DHT22;71724;-33.900;151.182;2024-02-21T03:52:56;24.70;85.90
16744;DHT22;71724;-33.900;151.182;2024-02-21T03:55:23;24.70;85.70
16744;DHT22;71724;-33.900;151.182;2024-02-21T03:57:51;24.70;85.80
16744;DHT22;71724;-33.900;151.182;2024-02-21T04:00:18;24.70;85.30
16744;DHT22;71724;-33.900;151.182;2024-02-21T04:02:46;24.80;85.40
16744;DHT22;71724;-33.900;151.182;2024-02-21T04:05:16;24.70;85.40
16744;DHT22;71724;-33.900;151.182;2024-02-21T04:07:46;24.80;84.60
16744;DHT22;71724;-33.900;151.182;2024-02-21T04:10:13;24.70;83.80
16744;DHT22;71724;-33.900;151.182;2024-02-21T04:12:41;24.80;84.10
16744;DHT22;71724;-33.900;151.182;2024-02-21T04:15:08;24.70;84.10
16744;DHT22;71724;-33.900;151.182;2024-02-21T04:17:37;24.70;84.00
16744;DHT22;71724;-33.900;151.182;2024-02-21T04:20:05;24.70;83.50
16744;DHT22;71724;-33.900;151.182;2024-02-21T04:22:34;24.80;83.90
16744;DHT22;71724;-33.900;151.182;2024-02-21T04:25:02;24.80;83.20
16744;DHT22;71724;-33.900;151.182;2024-02-21T04:27:29;24.80;82.90
16744;DHT22;71724;-33.900;151.182;2024-02-21T04:29:56;24.80;82.60
16744;DHT22;71724;-33.900;151.182;2024-02-21T04:32:24;24.90;82.30
16744;DHT22;71724;-33.900;151.182;2024-02-21T04:34:54;24.80;81.80
16744;DHT22;71724;-33.900;151.182;2024-02-21T04:37:21;24.80;81.80
16744;DHT22;71724;-33.900;151.182;2024-02-21T04:39:51;24.70;82.40
16744;DHT22;71724;-33.900;151.182;2024-02-21T04:42:19;24.80;82.50
16744;DHT22;71724;-33.900;151.182;2024-02-21T04:44:46;24.70;82.00
16744;DHT22;71724;-33.900;151.182;2024-02-21T04:47:14;24.80;82.30
16744;DHT22;71724;-33.900;151.182;2024-02-21T04:49:41;24.80;82.40
16744;DHT22;71724;-33.900;151.182;2024-02-21T04:52:08;24.80;82.00
16744;DHT22;71724;-33.900;151.182;2024-02-21T04:54:36;24.80;82.40
16744;DHT22;71724;-33.900;151.182;2024-02-21T04:57:03;24.80;83.10
16744;DHT22;71724;-33.900;151.182;2024-02-21T04:59:30;24.80;82.40
16744;DHT22;71724;-33.900;151.182;2024-02-21T05:01:58;24.70;82.10
16744;DHT22;71724;-33.900;151.182;2024-02-21T05:04:25;24.80;82.70
16744;DHT22;71724;-33.900;151.182;2024-02-21T05:06:53;24.80;83.20
16744;DHT22;71724;-33.900;151.182;2024-02-21T05:09:21;24.80;82.80
16744;DHT22;71724;-33.900;151.182;2024-02-21T05:11:48;24.80;82.90
16744;DHT22;71724;-33.900;151.182;2024-02-21T05:14:16;24.80;83.30
16744;DHT22;71724;-33.900;151.182;2024-02-21T05:16:43;24.70;83.40
16744;DHT22;71724;-33.900;151.182;2024-02-21T05:19:11;24.70;83.50
16744;DHT22;71724;-33.900;151.182;2024-02-21T05:21:38;24.80;83.90
16744;DHT22;71724;-33.900;151.182;2024-02-21T05:24:05;24.80;83.60
16744;DHT22;71724;-33.900;151.182;2024-02-21T05:26:33;24.80;83.00
16744;DHT22;71724;-33.900;151.182;2024-02-21T05:29:00;24.90;83.40
16744;DHT22;71724;-33.900;151.182;2024-02-21T05:31:55;24.90;83.10
16744;DHT22;71724;-33.900;151.182;2024-02-21T05:34:24;24.90;83.40
16744;DHT22;71724;-33.900;151.182;2024-02-21T05:36:52;24.90;83.50
16744;DHT22;71724;-33.900;151.182;2024-02-21T05:39:19;24.90;83.40
16744;DHT22;71724;-33.900;151.182;2024-02-21T05:41:49;24.90;83.50
16744;DHT22;71724;-33.900;151.182;2024-02-21T05:44:18;24.90;83.70
16744;DHT22;71724;-33.900;151.182;2024-02-21T05:46:45;24.80;83.40
16744;DHT22;71724;-33.900;151.182;2024-02-21T05:49:13;24.80;83.50
16744;DHT22;71724;-33.900;151.182;2024-02-21T05:51:41;24.70;83.90
16744;DHT22;71724;-33.900;151.182;2024-02-21T05:54:08;24.80;83.80
16744;DHT22;71724;-33.900;151.182;2024-02-21T05:56:35;24.70;83.90
16744;DHT22;71724;-33.900;151.182;2024-02-21T05:59:03;24.70;83.90
16744;DHT22;71724;-33.900;151.182;2024-02-21T06:01:30;24.60;84.20
16744;DHT22;71724;-33.900;151.182;2024-02-21T06:03:57;24.60;84.30
16744;DHT22;71724;-33.900;151.182;2024-02-21T06:06:25;24.60;84.50
16744;DHT22;71724;-33.900;151.182;2024-02-21T06:08:52;24.60;84.60
16744;DHT22;71724;-33.900;151.182;2024-02-21T06:11:20;24.50;84.80
16744;DHT22;71724;-33.900;151.182;2024-02-21T06:13:47;24.50;84.90
16744;DHT22;71724;-33.900;151.182;2024-02-21T06:16:15;24.50;84.80
16744;DHT22;71724;-33.900;151.182;2024-02-21T06:18:43;24.50;85.00
16744;DHT22;71724;-33.900;151.182;2024-02-21T06:21:10;24.60;85.00
16744;DHT22;71724;-33.900;151.182;2024-02-21T06:23:39;24.60;85.00
16744;DHT22;71724;-33.900;151.182;2024-02-21T06:26:06;24.60;84.40
16744;DHT22;71724;-33.900;151.182;2024-02-21T06:28:34;24.70;84.40
16744;DHT22;71724;-33.900;151.182;2024-02-21T06:31:01;24.70;84.30
16744;DHT22;71724;-33.900;151.182;2024-02-21T06:33:29;24.70;84.30
16744;DHT22;71724;-33.900;151.182;2024-02-21T06:35:56;24.70;84.50
16744;DHT22;71724;-33.900;151.182;2024-02-21T06:38:23;24.70;83.70
16744;DHT22;71724;-33.900;151.182;2024-02-21T06:40:51;24.60;83.50
16744;DHT22;71724;-33.900;151.182;2024-02-21T06:43:20;24.70;83.70
16744;DHT22;71724;-33.900;151.182;2024-02-21T06:45:47;24.60;83.80
16744;DHT22;71724;-33.900;151.182;2024-02-21T06:48:18;24.60;83.70
16744;DHT22;71724;-33.900;151.182;2024-02-21T06:50:46;24.60;83.90
16744;DHT22;71724;-33.900;151.182;2024-02-21T06:53:13;24.60;83.40
16744;DHT22;71724;-33.900;151.182;2024-02-21T06:55:41;24.50;83.70
16744;DHT22;71724;-33.900;151.182;2024-02-21T06:58:08;24.50;83.60
16744;DHT22;71724;-33.900;151.182;2024-02-21T07:00:39;24.40;83.90
16744;DHT22;71724;-33.900;151.182;2024-02-21T07:03:07;24.50;84.10
16744;DHT22;71724;-33.900;151.182;2024-02-21T07:05:34;24.50;84.10
16744;DHT22;71724;-33.900;151.182;2024-02-21T07:08:02;24.50;84.00
16744;DHT22;71724;-33.900;151.182;2024-02-21T07:10:30;24.50;83.70
16744;DHT22;71724;-33.900;151.182;2024-02-21T07:12:57;24.50;83.80
16744;DHT22;71724;-33.900;151.182;2024-02-21T07:15:24;24.50;83.90
16744;DHT22;71724;-33.900;151.182;2024-02-21T07:17:53;24.50;83.80
16744;DHT22;71724;-33.900;151.182;2024-02-21T07:20:21;24.60;83.90
16744;DHT22;71724;-33.900;151.182;2024-02-21T07:22:48;24.60;84.00
16744;DHT22;71724;-33.900;151.182;2024-02-21T07:25:18;24.50;84.10
16744;DHT22;71724;-33.900;151.182;2024-02-21T07:27:46;24.50;84.10
16744;DHT22;71724;-33.900;151.182;2024-02-21T07:30:13;24.50;84.40
16744;DHT22;71724;-33.900;151.182;2024-02-21T07:32:41;24.40;84.40
16744;DHT22;71724;-33.900;151.182;2024-02-21T07:35:09;24.50;84.50
16744;DHT22;71724;-33.900;151.182;2024-02-21T07:37:39;24.40;84.20
16744;DHT22;71724;-33.900;151.182;2024-02-21T07:40:12;24.40;84.60
16744;DHT22;71724;-33.900;151.182;2024-02-21T07:42:39;24.50;84.60
16744;DHT22;71724;-33.900;151.182;2024-02-21T07:45:08;24.50;84.70
16744;DHT22;71724;-33.900;151.182;2024-02-21T07:47:37;24.40;84.70
16744;DHT22;71724;-33.900;151.182;2024-02-21T07:50:05;24.40;84.80
16744;DHT22;71724;-33.900;151.182;2024-02-21T07:52:32;24.40;84.80
16744;DHT22;71724;-33.900;151.182;2024-02-21T07:55:00;24.40;85.00
16744;DHT22;71724;-33.900;151.182;2024-02-21T07:57:27;24.40;84.90
16744;DHT22;71724;-33.900;151.182;2024-02-21T07:59:54;24.30;84.90
16744;DHT22;71724;-33.900;151.182;2024-02-21T08:02:22;24.30;85.00
16744;DHT22;71724;-33.900;151.182;2024-02-21T08:04:49;24.30;85.10
16744;DHT22;71724;-33.900;151.182;2024-02-21T08:07:17;24.30;85.30
16744;DHT22;71724;-33.900;151.182;2024-02-21T08:09:44;24.30;85.40
16744;DHT22;71724;-33.900;151.182;2024-02-21T08:12:11;24.20;85.50
16744;DHT22;71724;-33.900;151.182;2024-02-21T08:14:39;24.30;85.60
16744;DHT22;71724;-33.900;151.182;2024-02-21T08:17:06;24.30;85.70
16744;DHT22;71724;-33.900;151.182;2024-02-21T08:19:34;24.20;85.70
16744;DHT22;71724;-33.900;151.182;2024-02-21T08:22:01;24.20;85.90
16744;DHT22;71724;-33.900;151.182;2024-02-21T08:24:29;24.20;86.00
16744;DHT22;71724;-33.900;151.182;2024-02-21T08:26:57;24.20;86.10
16744;DHT22;71724;-33.900;151.182;2024-02-21T08:29:24;24.10;86.20
16744;DHT22;71724;-33.900;151.182;2024-02-21T08:31:53;24.10;86.20
16744;DHT22;71724;-33.900;151.182;2024-02-21T08:34:20;24.10;86.30
16744;DHT22;71724;-33.900;151.182;2024-02-21T08:36:47;24.00;86.40
16744;DHT22;71724;-33.900;151.182;2024-02-21T08:39:15;24.00;86.50
16744;DHT22;71724;-33.900;151.182;2024-02-21T08:41:43;24.00;86.60
16744;DHT22;71724;-33.900;151.182;2024-02-21T08:44:10;24.00;86.70
16744;DHT22;71724;-33.900;151.182;2024-02-21T08:46:38;24.00;86.80
16744;DHT22;71724;-33.900;151.182;2024-02-21T08:49:07;24.00;86.90
16744;DHT22;71724;-33.900;151.182;2024-02-21T08:51:34;24.00;87.00
16744;DHT22;71724;-33.900;151.182;2024-02-21T08:54:02;23.90;87.10
16744;DHT22;71724;-33.900;151.182;2024-02-21T08:56:30;23.90;87.10
16744;DHT22;71724;-33.900;151.182;2024-02-21T08:58:58;23.80;87.20
16744;DHT22;71724;-33.900;151.182;2024-02-21T09:01:26;23.90;87.20
16744;DHT22;71724;-33.900;151.182;2024-02-21T09:03:54;23.80;87.20
16744;DHT22;71724;-33.900;151.182;2024-02-21T09:06:23;23.80;87.30
16744;DHT22;71724;-33.900;151.182;2024-02-21T09:08:50;23.80;87.40
16744;DHT22;71724;-33.900;151.182;2024-02-21T09:11:18;23.70;87.40
16744;DHT22;71724;-33.900;151.182;2024-02-21T09:13:45;23.70;87.50
16744;DHT22;71724;-33.900;151.182;2024-02-21T09:16:13;23.70;87.60
16744;DHT22;71724;-33.900;151.182;2024-02-21T09:18:40;23.70;87.70
16744;DHT22;71724;-33.900;151.182;2024-02-21T09:21:08;23.70;87.80
16744;DHT22;71724;-33.900;151.182;2024-02-21T09:23:35;23.70;87.80
16744;DHT22;71724;-33.900;151.182;2024-02-21T09:26:02;23.70;88.00
16744;DHT22;71724;-33.900;151.182;2024-02-21T09:28:31;23.60;88.00
16744;DHT22;71724;-33.900;151.182;2024-02-21T09:30:59;23.60;88.00
16744;DHT22;71724;-33.900;151.182;2024-02-21T09:33:27;23.60;88.10
16744;DHT22;71724;-33.900;151.182;2024-02-21T09:35:54;23.60;88.10
16744;DHT22;71724;-33.900;151.182;2024-02-21T09:38:21;23.60;88.20
16744;DHT22;71724;-33.900;151.182;2024-02-21T09:43:42;23.60;88.30
16744;DHT22;71724;-33.900;151.182;2024-02-21T09:46:18;23.60;88.30
16744;DHT22;71724;-33.900;151.182;2024-02-21T09:51:17;23.50;88.50
16744;DHT22;71724;-33.900;151.182;2024-02-21T09:53:46;23.50;88.60
16744;DHT22;71724;-33.900;151.182;2024-02-21T09:56:14;23.50;88.60
16744;DHT22;71724;-33.900;151.182;2024-02-21T09:58:41;23.50;88.60
16744;DHT22;71724;-33.900;151.182;2024-02-21T10:01:09;23.50;88.60
16744;DHT22;71724;-33.900;151.182;2024-02-21T10:03:36;23.50;88.70
16744;DHT22;71724;-33.900;151.182;2024-02-21T10:06:05;23.40;88.80
16744;DHT22;71724;-33.900;151.182;2024-02-21T10:08:32;23.40;88.80
16744;DHT22;71724;-33.900;151.182;2024-02-21T10:10:59;23.40;89.00
16744;DHT22;71724;-33.900;151.182;2024-02-21T10:13:30;23.40;89.10
16744;DHT22;71724;-33.900;151.182;2024-02-21T10:16:04;23.30;89.10
16744;DHT22;71724;-33.900;151.182;2024-02-21T10:18:33;23.30;89.10
16744;DHT22;71724;-33.900;151.182;2024-02-21T10:21:05;23.30;89.10
16744;DHT22;71724;-33.900;151.182;2024-02-21T10:23:50;23.30;89.20
16744;DHT22;71724;-33.900;151.182;2024-02-21T10:26:19;23.30;89.30
16744;DHT22;71724;-33.900;151.182;2024-02-21T10:28:47;23.30;89.30
16744;DHT22;71724;-33.900;151.182;2024-02-21T10:31:30;23.30;89.40
16744;DHT22;71724;-33.900;151.182;2024-02-21T10:34:00;23.30;89.50
16744;DHT22;71724;-33.900;151.182;2024-02-21T10:36:32;23.30;89.50
16744;DHT22;71724;-33.900;151.182;2024-02-21T10:38:59;23.30;89.60
16744;DHT22;71724;-33.900;151.182;2024-02-21T10:41:26;23.30;89.60
16744;DHT22;71724;-33.900;151.182;2024-02-21T10:43:56;23.30;89.70
16744;DHT22;71724;-33.900;151.182;2024-02-21T10:46:24;23.30;89.70
16744;DHT22;71724;-33.900;151.182;2024-02-21T10:49:10;23.30;89.70
16744;DHT22;71724;-33.900;151.182;2024-02-21T10:51:37;23.30;89.80
16744;DHT22;71724;-33.900;151.182;2024-02-21T10:54:24;23.30;89.80
16744;DHT22;71724;-33.900;151.182;2024-02-21T10:56:57;23.30;89.80
16744;DHT22;71724;-33.900;151.182;2024-02-21T10:59:26;23.30;89.90
16744;DHT22;71724;-33.900;151.182;2024-02-21T11:01:55;23.30;89.90
16744;DHT22;71724;-33.900;151.182;2024-02-21T11:04:23;23.30;89.90
16744;DHT22;71724;-33.900;151.182;2024-02-21T11:06:51;23.30;90.00
16744;DHT22;71724;-33.900;151.182;2024-02-21T11:09:19;23.20;90.00
16744;DHT22;71724;-33.900;151.182;2024-02-21T11:11:56;23.30;90.10
16744;DHT22;71724;-33.900;151.182;2024-02-21T11:14:27;23.30;90.10
16744;DHT22;71724;-33.900;151.182;2024-02-21T11:16:55;23.20;90.10
16744;DHT22;71724;-33.900;151.182;2024-02-21T11:19:29;23.20;90.20
16744;DHT22;71724;-33.900;151.182;2024-02-21T11:21:58;23.20;90.10
16744;DHT22;71724;-33.900;151.182;2024-02-21T11:24:32;23.20;90.10
16744;DHT22;71724;-33.900;151.182;2024-02-21T11:27:21;23.20;90.10
16744;DHT22;71724;-33.900;151.182;2024-02-21T11:29:58;23.20;90.10
16744;DHT22;71724;-33.900;151.182;2024-02-21T11:32:26;23.20;90.10
16744;DHT22;71724;-33.900;151.182;2024-02-21T11:35:05;23.20;90.20
16744;DHT22;71724;-33.900;151.182;2024-02-21T11:37:34;23.10;90.20
16744;DHT22;71724;-33.900;151.182;2024-02-21T11:40:05;23.10;90.20
16744;DHT22;71724;-33.900;151.182;2024-02-21T11:42:36;23.20;90.30
16744;DHT22;71724;-33.900;151.182;2024-02-21T11:45:04;23.10;90.20
16744;DHT22;71724;-33.900;151.182;2024-02-21T11:47:31;23.10;90.30
16744;DHT22;71724;-33.900;151.182;2024-02-21T11:49:59;23.10;90.30
16744;DHT22;71724;-33.900;151.182;2024-02-21T11:52:27;23.00;90.40
16744;DHT22;71724;-33.900;151.182;2024-02-21T11:54:55;23.10;90.50
16744;DHT22;71724;-33.900;151.182;2024-02-21T11:57:24;23.00;90.40
16744;DHT22;71724;-33.900;151.182;2024-02-21T11:59:54;23.00;90.50
16744;DHT22;71724;-33.900;151.182;2024-02-21T12:02:22;23.10;90.60
16744;DHT22;71724;-33.900;151.182;2024-02-21T12:04:49;23.00;90.60
16744;DHT22;71724;-33.900;151.182;2024-02-21T12:07:18;23.00;90.60
16744;DHT22;71724;-33.900;151.182;2024-02-21T12:09:45;23.10;90.60
16744;DHT22;71724;-33.900;151.182;2024-02-21T12:12:13;23.00;90.60
16744;DHT22;71724;-33.900;151.182;2024-02-21T12:14:40;23.00;90.70
16744;DHT22;71724;-33.900;151.182;2024-02-21T12:17:07;23.00;90.70
16744;DHT22;71724;-33.900;151.182;2024-02-21T12:19:35;23.00;90.70
16744;DHT22;71724;-33.900;151.182;2024-02-21T12:22:02;23.00;90.80
16744;DHT22;71724;-33.900;151.182;2024-02-21T12:24:32;23.00;90.80
16744;DHT22;71724;-33.900;151.182;2024-02-21T12:27:00;23.00;90.80
16744;DHT22;71724;-33.900;151.182;2024-02-21T12:29:30;23.00;90.80
16744;DHT22;71724;-33.900;151.182;2024-02-21T12:31:57;23.00;90.80
16744;DHT22;71724;-33.900;151.182;2024-02-21T12:34:25;23.00;90.80
16744;DHT22;71724;-33.900;151.182;2024-02-21T12:36:53;23.00;90.90
16744;DHT22;71724;-33.900;151.182;2024-02-21T12:39:20;23.00;90.90
16744;DHT22;71724;-33.900;151.182;2024-02-21T12:41:48;23.00;90.80
16744;DHT22;71724;-33.900;151.182;2024-02-21T12:44:15;23.00;90.90
16744;DHT22;71724;-33.900;151.182;2024-02-21T12:46:45;23.00;90.90
16744;DHT22;71724;-33.900;151.182;2024-02-21T12:49:12;23.00;90.90
16744;DHT22;71724;-33.900;151.182;2024-02-21T12:51:40;23.00;90.90
16744;DHT22;71724;-33.900;151.182;2024-02-21T12:54:08;23.00;90.90
16744;DHT22;71724;-33.900;151.182;2024-02-21T12:56:39;22.90;90.90
16744;DHT22;71724;-33.900;151.182;2024-02-21T12:59:07;22.90;90.90
16744;DHT22;71724;-33.900;151.182;2024-02-21T13:01:37;22.90;90.90
16744;DHT22;71724;-33.900;151.182;2024-02-21T13:04:05;22.90;90.90
16744;DHT22;71724;-33.900;151.182;2024-02-21T13:06:32;22.90;90.90
16744;DHT22;71724;-33.900;151.182;2024-02-21T13:09:00;22.90;90.90
16744;DHT22;71724;-33.900;151.182;2024-02-21T13:11:35;22.90;90.80
16744;DHT22;71724;-33.900;151.182;2024-02-21T13:14:02;22.80;90.90
16744;DHT22;71724;-33.900;151.182;2024-02-21T13:16:30;22.90;90.80
16744;DHT22;71724;-33.900;151.182;2024-02-21T13:18:57;22.80;90.80
16744;DHT22;71724;-33.900;151.182;2024-02-21T13:21:24;22.80;90.80
16744;DHT22;71724;-33.900;151.182;2024-02-21T13:23:52;22.80;90.90
16744;DHT22;71724;-33.900;151.182;2024-02-21T13:26:20;22.80;90.90
16744;DHT22;71724;-33.900;151.182;2024-02-21T13:28:47;22.80;90.90
16744;DHT22;71724;-33.900;151.182;2024-02-21T13:31:15;22.80;90.90
16744;DHT22;71724;-33.900;151.182;2024-02-21T13:33:45;22.80;90.90
16744;DHT22;71724;-33.900;151.182;2024-02-21T13:36:13;22.80;90.90
16744;DHT22;71724;-33.900;151.182;2024-02-21T13:38:40;22.80;90.90
16744;DHT22;71724;-33.900;151.182;2024-02-21T13:41:08;22.80;91.00
16744;DHT22;71724;-33.900;151.182;2024-02-21T13:43:35;22.80;90.90
16744;DHT22;71724;-33.900;151.182;2024-02-21T13:46:03;22.80;91.00
16744;DHT22;71724;-33.900;151.182;2024-02-21T13:48:31;22.70;91.00
16744;DHT22;71724;-33.900;151.182;2024-02-21T13:51:00;22.70;90.90
16744;DHT22;71724;-33.900;151.182;2024-02-21T13:53:29;22.70;91.00
16744;DHT22;71724;-33.900;151.182;2024-02-21T13:55:56;22.70;91.10
16744;DHT22;71724;-33.900;151.182;2024-02-21T13:58:24;22.70;91.00
16744;DHT22;71724;-33.900;151.182;2024-02-21T14:00:53;22.70;91.10
16744;DHT22;71724;-33.900;151.182;2024-02-21T14:03:20;22.70;91.10
16744;DHT22;71724;-33.900;151.182;2024-02-21T14:05:48;22.60;91.00
16744;DHT22;71724;-33.900;151.182;2024-02-21T14:08:16;22.70;91.10
16744;DHT22;71724;-33.900;151.182;2024-02-21T14:10:43;22.60;91.10
16744;DHT22;71724;-33.900;151.182;2024-02-21T14:13:11;22.60;91.10
16744;DHT22;71724;-33.900;151.182;2024-02-21T14:15:39;22.50;91.00
16744;DHT22;71724;-33.900;151.182;2024-02-21T14:18:07;22.50;91.10
16744;DHT22;71724;-33.900;151.182;2024-02-21T14:20:36;22.50;91.10
16744;DHT22;71724;-33.900;151.182;2024-02-21T14:23:03;22.50;91.20
16744;DHT22;71724;-33.900;151.182;2024-02-21T14:25:31;22.50;91.20
16744;DHT22;71724;-33.900;151.182;2024-02-21T14:27:59;22.50;91.30
16744;DHT22;71724;-33.900;151.182;2024-02-21T14:30:30;22.40;91.20
16744;DHT22;71724;-33.900;151.182;2024-02-21T14:32:57;22.40;91.20
16744;DHT22;71724;-33.900;151.182;2024-02-21T14:35:25;22.30;91.30
16744;DHT22;71724;-33.900;151.182;2024-02-21T14:37:53;22.40;91.30
16744;DHT22;71724;-33.900;151.182;2024-02-21T14:40:23;22.30;91.30
16744;DHT22;71724;-33.900;151.182;2024-02-21T14:42:51;22.30;91.40
16744;DHT22;71724;-33.900;151.182;2024-02-21T14:45:19;22.40;91.50
16744;DHT22;71724;-33.900;151.182;2024-02-21T14:47:46;22.40;91.50
16744;DHT22;71724;-33.900;151.182;2024-02-21T14:50:14;22.30;91.40
16744;DHT22;71724;-33.900;151.182;2024-02-21T14:52:42;22.30;91.50
16744;DHT22;71724;-33.900;151.182;2024-02-21T14:55:12;22.30;91.50
16744;DHT22;71724;-33.900;151.182;2024-02-21T14:57:40;22.30;91.50
16744;DHT22;71724;-33.900;151.182;2024-02-21T15:00:09;22.30;91.50